createdAt,value
2023-12-10T00:00:35.032Z,2.13
2023-12-10T00:03:05.441Z,2.08
2023-12-10T00:05:32.167Z,2.15
2023-12-10T00:07:59.287Z,2.18
2023-12-10T00:10:26.069Z,2.14
2023-12-10T00:12:52.866Z,2.17
2023-12-10T00:15:19.709Z,2.07
2023-12-10T00:17:46.696Z,2.11
2023-12-10T00:20:13.533Z,2.03
2023-12-10T00:22:40.362Z,2.09
2023-12-10T00:25:07.658Z,2.10
2023-12-10T00:27:34.388Z,2.15
2023-12-10T00:30:01.266Z,2.09
2023-12-10T00:32:31.416Z,2.11
2023-12-10T00:35:15.607Z,1.99
2023-12-10T00:37:54.790Z,2.00
2023-12-10T00:40:23.891Z,2.01
2023-12-10T00:42:52.546Z,2.08
2023-12-10T00:45:19.526Z,2.13
2023-12-10T00:47:55.493Z,2.07
2023-12-10T00:50:22.444Z,2.17
2023-12-10T00:52:49.151Z,2.19
2023-12-10T00:55:15.890Z,2.31
2023-12-10T00:57:42.660Z,2.08
2023-12-10T01:00:13.561Z,2.18
2023-12-10T01:02:40.978Z,2.18
2023-12-10T01:05:08.336Z,1.98
2023-12-10T01:07:35.332Z,2.07
2023-12-10T01:10:02.223Z,2.09
2023-12-10T01:12:32.493Z,1.64
2023-12-10T01:14:59.409Z,1.58
2023-12-10T01:17:26.288Z,1.76
2023-12-10T01:19:55.662Z,1.38
2023-12-10T01:22:22.459Z,1.56
2023-12-10T01:24:49.155Z,1.62
2023-12-10T01:27:17.128Z,1.67
2023-12-10T01:29:43.861Z,1.49
2023-12-10T01:32:11.250Z,1.70
2023-12-10T01:34:38.750Z,1.69
2023-12-10T01:37:05.680Z,1.63
2023-12-10T01:39:32.379Z,1.68
2023-12-10T01:41:59.209Z,1.73
2023-12-10T01:44:27.840Z,1.85
2023-12-10T01:46:56.790Z,1.78
2023-12-10T01:49:24.489Z,1.60
2023-12-10T01:51:51.445Z,1.65
2023-12-10T01:54:25.459Z,1.70
2023-12-10T01:57:00.261Z,1.43
2023-12-10T01:59:34.881Z,1.57
2023-12-10T02:02:01.949Z,1.52
2023-12-10T02:04:30.090Z,1.50
2023-12-10T02:06:56.751Z,1.48
2023-12-10T02:09:23.536Z,1.33
2023-12-10T02:11:51.651Z,1.40
2023-12-10T02:14:18.587Z,1.61
2023-12-10T02:16:45.470Z,1.63
2023-12-10T02:19:14.907Z,1.52
2023-12-10T02:21:48.991Z,1.29
2023-12-10T02:24:26.816Z,1.49
2023-12-10T02:26:54.085Z,1.44
2023-12-10T02:29:22.378Z,1.51
2023-12-10T02:31:49.129Z,1.45
2023-12-10T02:34:15.991Z,1.29
2023-12-10T02:36:42.824Z,1.36
2023-12-10T02:39:09.612Z,1.41
2023-12-10T02:41:36.391Z,1.48
2023-12-10T02:44:03.093Z,1.39
2023-12-10T02:46:29.787Z,1.30
2023-12-10T02:48:56.697Z,1.43
2023-12-10T02:51:23.673Z,1.48
2023-12-10T02:53:50.535Z,1.49
2023-12-10T02:56:17.293Z,1.53
2023-12-10T02:58:44.097Z,1.58
2023-12-10T03:01:13.986Z,1.43
2023-12-10T03:03:44.271Z,1.55
2023-12-10T03:06:13.826Z,1.50
2023-12-10T03:08:40.709Z,1.49
2023-12-10T03:11:09.843Z,1.37
2023-12-10T03:13:36.757Z,1.32
2023-12-10T03:16:03.736Z,1.47
2023-12-10T03:18:32.037Z,1.43
2023-12-10T03:20:58.826Z,1.25
2023-12-10T03:23:25.624Z,1.34
2023-12-10T03:25:52.305Z,1.42
2023-12-10T03:28:21.713Z,1.28
2023-12-10T03:30:48.599Z,1.29
2023-12-10T03:33:15.586Z,1.38
2023-12-10T03:35:42.452Z,1.40
2023-12-10T03:38:09.198Z,1.43
2023-12-10T03:40:35.978Z,1.43
2023-12-10T03:43:06.097Z,1.46
2023-12-10T03:45:32.876Z,1.48
2023-12-10T03:47:59.714Z,1.42
2023-12-10T03:50:26.527Z,1.40
2023-12-10T03:52:53.472Z,1.33
2023-12-10T03:55:20.482Z,1.29
2023-12-10T03:57:47.325Z,1.46
2023-12-10T04:00:14.314Z,1.50
2023-12-10T04:02:41.145Z,1.60
2023-12-10T04:05:08.173Z,1.65
2023-12-10T04:07:34.835Z,1.60
2023-12-10T04:10:01.511Z,1.56
2023-12-10T04:12:28.633Z,1.63
2023-12-10T04:14:55.591Z,1.63
2023-12-10T04:17:22.314Z,1.73
2023-12-10T04:19:49.225Z,1.68
2023-12-10T04:22:18.788Z,1.72
2023-12-10T04:24:46.138Z,1.65
2023-12-10T04:27:15.515Z,1.50
2023-12-10T04:29:43.027Z,1.56
2023-12-10T04:32:09.833Z,1.60
2023-12-10T04:34:36.621Z,1.57
2023-12-10T04:37:03.571Z,1.62
2023-12-10T04:39:30.348Z,1.41
2023-12-10T04:41:57.035Z,1.39
2023-12-10T04:44:23.778Z,1.29
2023-12-10T04:46:50.660Z,1.43
2023-12-10T04:49:17.434Z,1.54
2023-12-10T04:51:44.540Z,1.49
2023-12-10T04:54:11.424Z,1.56
2023-12-10T04:56:38.237Z,1.53
2023-12-10T04:59:05.011Z,1.58
2023-12-10T05:01:31.874Z,1.58
2023-12-10T05:03:58.857Z,1.46
2023-12-10T05:06:25.751Z,1.46
2023-12-10T05:08:52.746Z,1.44
2023-12-10T05:11:21.966Z,1.40
2023-12-10T05:13:48.718Z,1.54
2023-12-10T05:16:15.458Z,1.55
2023-12-10T05:18:42.338Z,1.50
2023-12-10T05:21:09.080Z,1.49
2023-12-10T05:23:35.876Z,1.45
2023-12-10T05:26:02.575Z,1.53
2023-12-10T05:28:29.303Z,1.52
2023-12-10T05:30:55.997Z,1.45
2023-12-10T05:33:22.856Z,1.40
2023-12-10T05:35:49.673Z,1.53
2023-12-10T05:38:16.408Z,1.44
2023-12-10T05:40:43.181Z,1.29
2023-12-10T05:43:09.932Z,1.42
2023-12-10T05:45:38.835Z,1.49
2023-12-10T05:48:05.895Z,1.42
2023-12-10T05:50:32.668Z,1.49
2023-12-10T05:52:59.614Z,1.53
2023-12-10T05:55:26.317Z,1.50
2023-12-10T05:57:53.293Z,1.33
2023-12-10T06:00:20.289Z,1.40
2023-12-10T06:02:47.074Z,1.32
2023-12-10T06:05:13.861Z,1.35
2023-12-10T06:07:40.558Z,1.39
2023-12-10T06:10:07.597Z,1.42
2023-12-10T06:12:34.520Z,1.48
2023-12-10T06:15:01.337Z,1.39
2023-12-10T06:17:30.392Z,1.44
2023-12-10T06:19:57.410Z,1.54
2023-12-10T06:22:24.135Z,1.53
2023-12-10T06:24:52.519Z,1.61
2023-12-10T06:27:19.535Z,1.55
2023-12-10T06:29:46.246Z,1.58
2023-12-10T06:32:13.065Z,1.71
2023-12-10T06:34:40.015Z,1.80
2023-12-10T06:37:08.639Z,1.74
2023-12-10T06:39:35.427Z,1.79
2023-12-10T06:42:02.748Z,1.68
2023-12-10T06:44:30.793Z,1.76
2023-12-10T06:46:57.501Z,1.71
2023-12-10T06:49:24.417Z,1.74
2023-12-10T06:51:52.591Z,1.84
2023-12-10T06:54:19.383Z,1.79
2023-12-10T06:56:46.332Z,1.93
2023-12-10T06:59:13.175Z,1.88
2023-12-10T07:01:40.172Z,1.90
2023-12-10T07:04:08.803Z,1.78
2023-12-10T07:06:36.413Z,1.87
2023-12-10T07:09:03.555Z,1.86
2023-12-10T07:11:30.393Z,1.90
2023-12-10T07:13:58.393Z,1.93
2023-12-10T07:16:25.180Z,1.87
2023-12-10T07:18:52.035Z,1.89
2023-12-10T07:21:18.878Z,2.04
2023-12-10T07:23:48.897Z,2.11
2023-12-10T07:26:22.386Z,2.17
2023-12-10T07:28:49.181Z,2.28
2023-12-10T07:31:16.057Z,2.24
2023-12-10T07:33:43.159Z,2.23
2023-12-10T07:36:10.418Z,2.20
2023-12-10T07:38:37.735Z,2.23
2023-12-10T07:41:04.617Z,2.25
2023-12-10T07:43:34.797Z,2.37
2023-12-10T07:46:04.506Z,2.29
2023-12-10T07:48:31.380Z,2.30
2023-12-10T07:51:02.299Z,2.25
2023-12-10T07:53:29.107Z,2.14
2023-12-10T07:55:58.690Z,2.17
2023-12-10T07:58:25.434Z,2.23
2023-12-10T08:00:52.219Z,2.25
2023-12-10T08:03:25.058Z,2.30
2023-12-10T08:05:51.740Z,2.36
2023-12-10T08:08:18.470Z,2.43
2023-12-10T08:10:45.316Z,2.42
2023-12-10T08:13:12.281Z,2.44
2023-12-10T08:15:39.090Z,2.39
2023-12-10T08:18:06.465Z,2.47
2023-12-10T08:20:36.282Z,2.52
2023-12-10T08:23:03.057Z,2.55
2023-12-10T08:25:35.717Z,2.58
2023-12-10T08:28:02.513Z,2.62
2023-12-10T08:30:29.351Z,2.54
2023-12-10T08:32:56.174Z,2.52
2023-12-10T08:35:25.899Z,2.42
2023-12-10T08:37:52.723Z,2.58
2023-12-10T08:40:22.291Z,2.63
2023-12-10T08:42:51.453Z,2.57
2023-12-10T08:45:23.000Z,2.58
2023-12-10T08:47:49.849Z,2.37
2023-12-10T08:50:16.710Z,2.45
2023-12-10T08:52:44.472Z,2.61
2023-12-10T08:55:13.385Z,2.69
2023-12-10T08:57:42.623Z,2.80
2023-12-10T09:00:09.833Z,2.77
2023-12-10T09:02:36.783Z,2.64
2023-12-10T09:05:05.080Z,2.82
2023-12-10T09:07:31.949Z,2.66
2023-12-10T09:10:08.273Z,2.51
2023-12-10T09:12:38.869Z,2.62
2023-12-10T09:15:06.251Z,2.70
2023-12-10T09:17:36.094Z,2.70
2023-12-10T09:20:04.766Z,2.81
2023-12-10T09:22:31.759Z,2.77
2023-12-10T09:24:58.717Z,2.85
2023-12-10T09:27:29.040Z,2.90
2023-12-10T09:29:57.199Z,2.61
2023-12-10T09:32:23.873Z,2.72
2023-12-10T09:34:51.246Z,2.61
2023-12-10T09:37:18.194Z,2.79
2023-12-10T09:39:45.066Z,2.77
2023-12-10T09:42:11.837Z,2.90
2023-12-10T09:44:38.665Z,2.97
2023-12-10T09:47:09.802Z,2.97
2023-12-10T09:49:41.724Z,3.01
2023-12-10T09:52:09.763Z,2.90
2023-12-10T09:54:39.558Z,2.96
2023-12-10T09:57:06.978Z,3.06
2023-12-10T09:59:33.835Z,3.07
2023-12-10T10:02:00.539Z,3.11
2023-12-10T10:04:27.549Z,3.14
2023-12-10T10:06:54.553Z,2.99
2023-12-10T10:09:28.588Z,2.99
2023-12-10T10:12:02.653Z,3.10
2023-12-10T10:14:29.517Z,2.97
2023-12-10T10:16:57.775Z,2.97
2023-12-10T10:19:26.652Z,2.81
2023-12-10T10:21:55.612Z,2.78
2023-12-10T10:24:23.363Z,2.53
2023-12-10T10:26:50.577Z,2.71
2023-12-10T10:29:17.593Z,2.69
2023-12-10T10:31:45.776Z,2.78
2023-12-10T10:34:15.994Z,2.82
2023-12-10T10:36:43.006Z,2.88
2023-12-10T10:39:14.917Z,2.83
2023-12-10T10:41:41.837Z,2.78
2023-12-10T10:44:08.564Z,2.82
2023-12-10T10:46:37.357Z,2.76
2023-12-10T10:49:06.768Z,2.81
2023-12-10T10:51:34.159Z,2.82
2023-12-10T10:54:05.764Z,2.77
2023-12-10T10:56:35.856Z,2.78
2023-12-10T10:59:02.502Z,2.82
2023-12-10T11:01:48.734Z,2.77
2023-12-10T11:04:20.252Z,2.77
2023-12-10T11:06:48.320Z,2.79
2023-12-10T11:09:18.672Z,2.86
2023-12-10T11:11:45.484Z,2.79
2023-12-10T11:14:24.343Z,2.81
2023-12-10T11:16:59.222Z,2.60
2023-12-10T11:19:26.339Z,2.72
2023-12-10T11:21:53.187Z,2.65
2023-12-10T11:24:20.165Z,2.83
2023-12-10T11:26:50.029Z,2.84
2023-12-10T11:29:25.820Z,2.85
2023-12-10T11:31:54.302Z,2.83
2023-12-10T11:34:21.176Z,2.76
2023-12-10T11:36:50.888Z,2.80
2023-12-10T11:39:17.792Z,2.85
2023-12-10T11:44:18.577Z,2.96
2023-12-10T11:46:50.818Z,2.91
2023-12-10T11:49:19.030Z,2.86
2023-12-10T11:51:46.073Z,2.98
2023-12-10T11:54:21.680Z,2.91
2023-12-10T11:56:51.345Z,2.88
2023-12-10T11:59:18.181Z,2.91
2023-12-10T12:01:46.870Z,2.94
2023-12-10T12:04:13.921Z,2.89
2023-12-10T12:06:41.957Z,2.78
2023-12-10T12:09:22.760Z,2.76
2023-12-10T12:11:50.319Z,2.65
2023-12-10T12:14:17.846Z,2.61
2023-12-10T12:16:46.412Z,2.64
2023-12-10T12:19:30.241Z,2.68
2023-12-10T12:22:00.568Z,2.58
2023-12-10T12:24:27.651Z,2.36
2023-12-10T12:26:55.457Z,2.47
2023-12-10T12:29:22.266Z,2.54
2023-12-10T12:32:05.161Z,2.51
2023-12-10T12:34:35.636Z,2.55
2023-12-10T12:37:03.786Z,2.49
2023-12-10T12:39:30.752Z,2.52
2023-12-10T12:42:00.010Z,2.51
2023-12-10T12:44:26.743Z,2.53
2023-12-10T12:46:54.010Z,2.53
2023-12-10T12:49:23.506Z,2.56
2023-12-10T12:51:50.313Z,2.56
2023-12-10T12:54:17.152Z,2.62
2023-12-10T12:56:44.037Z,2.61
2023-12-10T12:59:16.312Z,2.60
2023-12-10T13:01:43.790Z,2.65
2023-12-10T13:04:10.931Z,2.65
2023-12-10T13:06:42.543Z,2.60
2023-12-10T13:09:09.385Z,2.68
2023-12-10T13:11:38.004Z,2.66
2023-12-10T13:14:07.363Z,2.67
2023-12-10T13:16:34.116Z,2.65
2023-12-10T13:19:01.161Z,2.67
2023-12-10T13:21:31.773Z,2.62
2023-12-10T13:23:58.620Z,2.67
2023-12-10T13:26:25.547Z,2.70
2023-12-10T13:28:52.385Z,2.73
2023-12-10T13:31:19.244Z,2.78
2023-12-10T13:33:46.165Z,2.75
2023-12-10T13:36:12.987Z,2.75
2023-12-10T13:38:39.725Z,2.77
2023-12-10T13:41:06.621Z,2.76
2023-12-10T13:43:34.074Z,2.81
2023-12-10T13:46:00.848Z,2.89
2023-12-10T13:48:27.696Z,2.89
2023-12-10T13:50:56.088Z,2.96
2023-12-10T13:53:22.955Z,2.96
2023-12-10T13:55:49.678Z,2.94
2023-12-10T13:58:16.402Z,2.98
2023-12-10T14:00:50.110Z,2.90
2023-12-10T14:03:16.865Z,2.89
2023-12-10T14:05:46.291Z,2.82
2023-12-10T14:08:15.935Z,2.84
2023-12-10T14:10:42.932Z,2.87
2023-12-10T14:13:09.624Z,2.93
2023-12-10T14:15:36.643Z,2.95
2023-12-10T14:18:03.774Z,2.98
2023-12-10T14:20:30.670Z,2.88
2023-12-10T14:22:57.327Z,2.81
2023-12-10T14:25:24.101Z,2.76
2023-12-10T14:27:52.616Z,2.72
2023-12-10T14:30:21.745Z,2.74
2023-12-10T14:32:51.277Z,2.70
2023-12-10T14:35:20.915Z,2.73
2023-12-10T14:37:49.362Z,2.72
2023-12-10T14:40:16.240Z,2.75
2023-12-10T14:42:43.024Z,2.78
2023-12-10T14:45:10.158Z,2.79
2023-12-10T14:47:37.243Z,2.76
2023-12-10T14:50:05.059Z,2.74
2023-12-10T14:52:38.127Z,2.79
2023-12-10T14:55:05.564Z,2.81
2023-12-10T14:57:32.538Z,2.76
2023-12-10T15:00:07.242Z,2.72
2023-12-10T15:02:33.951Z,2.71
2023-12-10T15:05:04.201Z,2.73
2023-12-10T15:07:31.438Z,2.78
2023-12-10T15:09:58.383Z,2.76
2023-12-10T15:12:26.602Z,2.74
2023-12-10T15:14:54.293Z,2.68
2023-12-10T15:17:24.276Z,2.59
2023-12-10T15:19:51.188Z,2.57
2023-12-10T15:22:20.465Z,2.61
2023-12-10T15:24:47.344Z,2.67
2023-12-10T15:27:14.088Z,2.73
2023-12-10T15:29:43.961Z,2.73
2023-12-10T15:32:10.740Z,2.76
2023-12-10T15:34:37.628Z,2.77
2023-12-10T15:37:04.688Z,2.76
2023-12-10T15:39:31.695Z,2.80
2023-12-10T15:41:59.934Z,2.85
2023-12-10T15:44:28.798Z,2.85
2023-12-10T15:46:58.112Z,2.85
2023-12-10T15:49:25.041Z,2.85
2023-12-10T15:51:56.102Z,2.85
2023-12-10T15:54:29.879Z,2.86
2023-12-10T15:56:56.663Z,2.88
2023-12-10T15:59:23.384Z,2.85
2023-12-10T16:01:50.186Z,2.84
2023-12-10T16:04:17.443Z,2.85
2023-12-10T16:06:44.326Z,2.81
2023-12-10T16:09:12.343Z,2.83
2023-12-10T16:11:39.349Z,2.80
2023-12-10T16:14:06.160Z,2.85
2023-12-10T16:16:32.962Z,2.86
2023-12-10T16:18:59.862Z,2.88
2023-12-10T16:21:26.664Z,2.89
2023-12-10T16:23:53.516Z,2.89
2023-12-10T16:26:21.206Z,2.91
2023-12-10T16:28:51.473Z,2.92
2023-12-10T16:31:18.538Z,2.95
2023-12-10T16:33:45.348Z,2.92
2023-12-10T16:36:15.125Z,2.91
2023-12-10T16:38:41.927Z,2.88
2023-12-10T16:41:08.788Z,2.88
2023-12-10T16:43:35.536Z,2.89
2023-12-10T16:46:02.410Z,2.86
2023-12-10T16:48:29.492Z,2.86
2023-12-10T16:50:56.486Z,2.85
2023-12-10T16:53:23.428Z,2.81
2023-12-10T16:55:50.374Z,2.79
2023-12-10T16:58:17.722Z,2.73
2023-12-10T17:00:44.699Z,2.73
2023-12-10T17:03:12.292Z,2.78
2023-12-10T17:05:39.272Z,2.69
2023-12-10T17:08:07.118Z,2.63
2023-12-10T17:10:36.766Z,2.68
2023-12-10T17:13:03.776Z,2.68
2023-12-10T17:15:30.685Z,2.67
2023-12-10T17:18:00.181Z,2.66
2023-12-10T17:20:27.059Z,2.68
2023-12-10T17:22:53.865Z,2.67
2023-12-10T17:25:20.552Z,2.68
2023-12-10T17:27:47.317Z,2.54
2023-12-10T17:30:16.538Z,2.57
2023-12-10T17:32:43.556Z,2.56
2023-12-10T17:35:13.428Z,2.55
2023-12-10T17:37:40.181Z,2.49
2023-12-10T17:40:07.766Z,2.54
2023-12-10T17:42:34.645Z,2.57
2023-12-10T17:45:01.527Z,2.57
2023-12-10T17:47:28.685Z,2.57
2023-12-10T17:49:56.805Z,2.61
2023-12-10T17:52:25.149Z,2.65
2023-12-10T17:54:56.555Z,2.61
2023-12-10T17:57:26.315Z,2.56
2023-12-10T17:59:55.719Z,2.52
2023-12-10T18:02:25.374Z,2.55
2023-12-10T18:04:52.156Z,2.53
2023-12-10T18:07:18.853Z,2.58
2023-12-10T18:09:45.623Z,2.55
2023-12-10T18:12:17.151Z,2.53
2023-12-10T18:14:43.873Z,2.47
2023-12-10T18:17:10.696Z,2.37
2023-12-10T18:19:39.859Z,2.45
2023-12-10T18:22:07.766Z,2.51
2023-12-10T18:24:34.731Z,2.50
2023-12-10T18:27:01.444Z,2.43
2023-12-10T18:29:28.208Z,2.43
2023-12-10T18:31:54.938Z,2.44
2023-12-10T18:34:22.111Z,2.48
2023-12-10T18:36:48.975Z,2.51
2023-12-10T18:39:15.758Z,2.39
2023-12-10T18:41:42.556Z,2.49
2023-12-10T18:44:09.265Z,2.56
2023-12-10T18:46:36.090Z,2.57
2023-12-10T18:49:02.939Z,2.49
2023-12-10T18:51:29.803Z,2.53
2023-12-10T18:53:56.588Z,2.56
2023-12-10T18:56:23.301Z,2.62
2023-12-10T18:58:49.951Z,2.60
2023-12-10T19:01:16.789Z,2.63
2023-12-10T19:03:46.481Z,2.60
2023-12-10T19:06:13.358Z,2.58
2023-12-10T19:08:45.148Z,2.53
2023-12-10T19:11:14.853Z,2.48
2023-12-10T19:13:41.644Z,2.58
2023-12-10T19:16:08.772Z,2.56
2023-12-10T19:18:42.169Z,2.61
2023-12-10T19:21:08.960Z,2.56
2023-12-10T19:23:36.005Z,2.46
2023-12-10T19:26:02.755Z,2.43
2023-12-10T19:28:29.567Z,2.45
2023-12-10T19:30:56.580Z,2.48
2023-12-10T19:33:23.629Z,2.49
2023-12-10T19:35:50.367Z,2.48
2023-12-10T19:38:17.341Z,2.42
2023-12-10T19:40:44.462Z,2.41
2023-12-10T19:43:11.378Z,2.30
2023-12-10T19:45:38.210Z,2.30
2023-12-10T19:48:06.607Z,2.38
2023-12-10T19:50:33.317Z,2.40
2023-12-10T19:52:59.981Z,2.38
2023-12-10T19:55:26.956Z,2.41
2023-12-10T19:57:56.577Z,2.41
2023-12-10T20:00:23.386Z,2.41
2023-12-10T20:02:50.095Z,2.38
2023-12-10T20:05:17.129Z,2.38
2023-12-10T20:07:46.479Z,2.36
2023-12-10T20:10:13.429Z,2.38
2023-12-10T20:12:40.343Z,2.32
2023-12-10T20:15:09.107Z,2.22
2023-12-10T20:17:38.563Z,2.26
2023-12-10T20:20:08.716Z,2.30
2023-12-10T20:22:40.793Z,2.23
2023-12-10T20:25:12.948Z,2.22
2023-12-10T20:27:45.265Z,2.25
2023-12-10T20:30:12.444Z,2.23
2023-12-10T20:32:39.950Z,2.23
2023-12-10T20:35:07.144Z,2.25
2023-12-10T20:37:34.176Z,2.16
2023-12-10T20:40:05.514Z,2.20
2023-12-10T20:42:32.359Z,2.18
2023-12-10T20:44:59.308Z,2.23
2023-12-10T20:47:26.390Z,2.24
2023-12-10T20:49:53.509Z,2.16
2023-12-10T20:52:20.577Z,2.27
2023-12-10T20:54:53.817Z,2.28
2023-12-10T20:57:20.552Z,2.15
2023-12-10T20:59:47.475Z,2.16
2023-12-10T21:02:14.210Z,2.13
2023-12-10T21:04:40.942Z,2.14
2023-12-10T21:07:07.723Z,2.15
2023-12-10T21:09:34.491Z,2.03
2023-12-10T21:12:01.208Z,2.03
2023-12-10T21:14:28.284Z,2.01
2023-12-10T21:16:57.818Z,2.12
2023-12-10T21:19:24.739Z,2.18
2023-12-10T21:21:53.968Z,2.16
2023-12-10T21:24:24.895Z,2.10
2023-12-10T21:26:52.492Z,2.15
2023-12-10T21:29:19.365Z,2.19
2023-12-10T21:31:51.649Z,2.15
2023-12-10T21:34:18.529Z,2.21
2023-12-10T21:36:48.146Z,2.14
2023-12-10T21:39:20.272Z,2.18
2023-12-10T21:41:47.184Z,2.09
2023-12-10T21:44:17.036Z,2.16
2023-12-10T21:46:44.000Z,2.16
2023-12-10T21:49:13.954Z,2.19
2023-12-10T21:51:40.881Z,2.19
2023-12-10T21:54:07.892Z,2.12
2023-12-10T21:56:35.209Z,2.09
2023-12-10T21:59:01.968Z,2.09
2023-12-10T22:01:32.874Z,2.11
2023-12-10T22:03:59.833Z,2.09
2023-12-10T22:06:26.712Z,2.09
2023-12-10T22:08:53.953Z,2.10
2023-12-10T22:11:20.638Z,2.09
2023-12-10T22:13:47.371Z,1.96
2023-12-10T22:16:14.268Z,1.87
2023-12-10T22:18:44.421Z,1.84
2023-12-10T22:21:11.383Z,1.92
2023-12-10T22:23:39.365Z,1.88
2023-12-10T22:26:06.036Z,1.88
2023-12-10T22:28:32.727Z,1.87
2023-12-10T22:30:59.469Z,1.92
2023-12-10T22:33:28.457Z,1.92
2023-12-10T22:35:55.272Z,1.94
2023-12-10T22:38:24.750Z,1.85
2023-12-10T22:40:51.656Z,1.83
2023-12-10T22:43:19.903Z,1.64
2023-12-10T22:45:46.709Z,1.80
2023-12-10T22:48:13.744Z,1.83
2023-12-10T22:50:43.397Z,1.83
2023-12-10T22:53:10.223Z,1.87
2023-12-10T22:55:39.119Z,1.82
2023-12-10T22:58:06.058Z,1.73
2023-12-10T23:00:34.787Z,1.68
2023-12-10T23:03:01.702Z,1.84
2023-12-10T23:05:28.556Z,1.80
2023-12-10T23:07:55.279Z,1.75
2023-12-10T23:10:24.990Z,1.79
2023-12-10T23:12:51.938Z,1.79
2023-12-10T23:15:18.717Z,1.71
2023-12-10T23:17:45.602Z,1.74
2023-12-10T23:20:15.400Z,1.75
2023-12-10T23:22:42.182Z,1.66
2023-12-10T23:25:11.932Z,1.70
2023-12-10T23:27:39.134Z,1.75
2023-12-10T23:30:06.449Z,1.74
2023-12-10T23:32:35.966Z,1.73
2023-12-10T23:35:02.800Z,1.66
2023-12-10T23:37:30.010Z,1.73
2023-12-10T23:39:56.874Z,1.73
2023-12-10T23:42:23.626Z,1.72
2023-12-10T23:44:50.469Z,1.79
2023-12-10T23:47:17.294Z,1.86
2023-12-10T23:49:44.210Z,1.78
2023-12-10T23:52:13.646Z,1.76
2023-12-10T23:54:40.508Z,1.72
2023-12-10T23:57:07.378Z,1.67
2023-12-10T23:59:34.446Z,1.68
